createdAt,value
2022-09-15T00:02:21.882Z,14.90
2022-09-15T00:04:48.379Z,13.18
2022-09-15T00:07:16.136Z,13.82
2022-09-15T00:09:42.868Z,13.52
2022-09-15T00:12:09.403Z,14.13
2022-09-15T00:14:35.883Z,13.60
2022-09-15T00:17:02.416Z,15.65
2022-09-15T00:19:28.935Z,15.05
2022-09-15T00:21:55.395Z,16.60
2022-09-15T00:24:21.915Z,14.32
2022-09-15T00:26:48.399Z,14.80
2022-09-15T00:29:14.875Z,14.68
2022-09-15T00:31:41.406Z,13.07
2022-09-15T00:34:07.904Z,12.10
2022-09-15T00:36:34.340Z,13.52
2022-09-15T00:39:00.972Z,13.80
2022-09-15T00:41:27.790Z,12.88
2022-09-15T00:43:59.715Z,13.38
2022-09-15T00:46:30.467Z,13.18
2022-09-15T00:49:07.348Z,12.90
2022-09-15T00:51:36.599Z,13.77
2022-09-15T00:54:07.025Z,12.45
2022-09-15T00:56:36.299Z,12.95
2022-09-15T00:59:06.765Z,13.73
2022-09-15T01:04:17.616Z,13.15
2022-09-15T01:06:52.279Z,13.35
2022-09-15T01:09:28.729Z,13.35
2022-09-15T01:11:55.240Z,14.07
2022-09-15T01:14:21.774Z,13.73
2022-09-15T01:20:30.985Z,13.70
2022-09-15T01:23:25.228Z,13.15
2022-09-15T01:26:16.552Z,12.82
2022-09-15T01:28:56.893Z,13.75
2022-09-15T01:32:00.126Z,14.02
2022-09-15T01:34:33.437Z,13.75
2022-09-15T01:37:06.782Z,13.45
2022-09-15T01:39:40.002Z,14.68
2022-09-15T01:42:10.537Z,14.90
2022-09-15T01:44:45.194Z,14.65
2022-09-15T01:47:14.985Z,15.13
2022-09-15T01:49:52.235Z,15.65
2022-09-15T01:52:21.187Z,16.25
2022-09-15T01:54:52.550Z,15.80
2022-09-15T01:57:22.118Z,15.98
2022-09-15T01:59:54.246Z,15.15
2022-09-15T02:02:24.519Z,17.95
2022-09-15T02:04:55.449Z,18.05
2022-09-15T02:07:31.910Z,18.60
2022-09-15T02:10:24.716Z,18.35
2022-09-15T02:12:58.504Z,17.25
2022-09-15T02:15:30.450Z,17.85
2022-09-15T02:17:58.039Z,17.30
2022-09-15T02:20:34.324Z,19.67
2022-09-15T02:23:08.197Z,17.70
2022-09-15T02:25:41.871Z,18.70
2022-09-15T02:28:13.018Z,18.75
2022-09-15T02:30:42.876Z,19.95
2022-09-15T02:33:14.718Z,19.85
2022-09-15T02:35:42.159Z,19.15
2022-09-15T02:38:10.777Z,19.35
2022-09-15T02:40:42.204Z,19.25
2022-09-15T02:43:17.706Z,18.08
2022-09-15T02:45:44.687Z,18.20
2022-09-15T02:48:11.748Z,18.50
2022-09-15T02:50:38.975Z,17.02
2022-09-15T02:53:06.068Z,17.20
2022-09-15T02:55:32.886Z,16.48
2022-09-15T02:58:00.273Z,15.68
2022-09-15T03:00:28.436Z,14.15
2022-09-15T03:02:55.604Z,14.68
2022-09-15T03:05:25.101Z,13.65
2022-09-15T03:07:52.358Z,12.35
2022-09-15T03:10:19.594Z,11.85
2022-09-15T03:12:49.972Z,11.00
2022-09-15T03:15:19.318Z,11.27
2022-09-15T03:17:47.621Z,9.75
2022-09-15T03:20:20.171Z,9.27
2022-09-15T03:22:47.744Z,8.00
2022-09-15T03:25:14.385Z,8.18
2022-09-15T03:27:40.973Z,7.18
2022-09-15T03:30:08.600Z,6.65
2022-09-15T03:32:35.565Z,7.50
2022-09-15T03:35:02.358Z,8.20
2022-09-15T03:37:28.833Z,7.38
2022-09-15T03:39:56.056Z,7.05
2022-09-15T03:42:22.678Z,7.20
2022-09-15T03:44:49.224Z,7.43
2022-09-15T03:47:15.798Z,7.53
2022-09-15T03:49:42.381Z,7.45
2022-09-15T03:52:08.904Z,7.22
2022-09-15T03:54:35.562Z,7.15
2022-09-15T03:57:03.400Z,6.68
2022-09-15T03:59:29.906Z,6.78
2022-09-15T04:01:56.443Z,6.53
2022-09-15T04:04:23.073Z,6.30
2022-09-15T04:06:49.569Z,7.05
2022-09-15T04:09:16.208Z,6.88
2022-09-15T04:11:42.874Z,7.68
2022-09-15T04:14:09.493Z,7.78
2022-09-15T04:16:36.159Z,7.50
2022-09-15T04:19:02.790Z,7.43
2022-09-15T04:21:31.695Z,7.05
2022-09-15T04:23:58.320Z,7.20
2022-09-15T04:26:29.966Z,6.82
2022-09-15T04:28:58.682Z,6.38
2022-09-15T04:31:27.110Z,6.22
2022-09-15T04:33:55.340Z,5.88
2022-09-15T04:36:25.014Z,5.72
2022-09-15T04:38:53.494Z,6.70
2022-09-15T04:41:20.931Z,7.18
2022-09-15T04:43:47.884Z,7.30
2022-09-15T04:46:15.232Z,7.90
2022-09-15T04:48:41.864Z,8.05
2022-09-15T04:51:11.890Z,8.48
2022-09-15T04:53:38.802Z,9.90
2022-09-15T04:56:11.624Z,9.13
2022-09-15T04:58:43.501Z,9.50
2022-09-15T05:01:20.135Z,8.65
2022-09-15T05:03:47.473Z,9.05
2022-09-15T05:06:16.471Z,8.60
2022-09-15T05:08:43.269Z,9.82
2022-09-15T05:11:12.148Z,9.32
2022-09-15T05:13:40.121Z,8.60
2022-09-15T05:16:15.242Z,9.75
2022-09-15T05:18:43.176Z,8.82
2022-09-15T05:21:11.185Z,8.75
2022-09-15T05:23:38.352Z,8.98
2022-09-15T05:26:28.233Z,8.50
2022-09-15T05:28:56.538Z,9.35
2022-09-15T05:31:29.017Z,9.48
2022-09-15T05:33:55.696Z,8.43
2022-09-15T05:36:25.310Z,9.27
2022-09-15T05:38:58.734Z,9.10
2022-09-15T05:41:26.689Z,8.98
2022-09-15T05:43:54.508Z,8.38
2022-09-15T05:46:21.076Z,7.97
2022-09-15T05:48:47.694Z,8.20
2022-09-15T05:51:14.641Z,7.43
2022-09-15T05:53:41.760Z,7.68
2022-09-15T05:56:12.117Z,7.72
2022-09-15T05:58:40.718Z,7.40
2022-09-15T06:01:11.083Z,7.65
2022-09-15T06:03:37.558Z,7.72
2022-09-15T06:06:05.651Z,7.60
2022-09-15T06:08:36.848Z,7.90
2022-09-15T06:11:20.503Z,7.47
2022-09-15T06:13:47.583Z,7.13
2022-09-15T06:16:18.315Z,6.97
2022-09-15T06:18:45.123Z,5.75
2022-09-15T06:21:14.240Z,6.57
2022-09-15T06:23:41.721Z,5.65
2022-09-15T06:26:13.160Z,5.15
2022-09-15T06:28:42.298Z,5.22
2022-09-15T06:31:13.514Z,5.38
2022-09-15T06:33:45.141Z,5.63
2022-09-15T06:36:16.034Z,4.93
2022-09-15T06:38:43.028Z,4.95
2022-09-15T06:41:10.541Z,4.85
2022-09-15T06:43:37.657Z,5.63
2022-09-15T06:46:09.149Z,4.60
2022-09-15T06:48:37.149Z,4.55
2022-09-15T06:51:05.357Z,4.50
2022-09-15T06:53:33.455Z,4.30
2022-09-15T06:56:08.300Z,4.63
2022-09-15T06:58:36.261Z,4.47
2022-09-15T07:01:27.262Z,4.20
2022-09-15T07:03:56.737Z,4.22
2022-09-15T07:06:23.451Z,4.53
2022-09-15T07:08:50.413Z,3.78
2022-09-15T07:11:18.447Z,3.80
2022-09-15T07:13:45.180Z,3.90
2022-09-15T07:16:13.186Z,3.90
2022-09-15T07:18:43.202Z,3.80
2022-09-15T07:21:16.348Z,4.53
2022-09-15T07:23:44.012Z,3.55
2022-09-15T07:26:14.743Z,3.92
2022-09-15T07:28:42.860Z,4.00
2022-09-15T07:31:11.562Z,3.53
2022-09-15T07:33:38.138Z,3.53
2022-09-15T07:36:06.781Z,3.30
2022-09-15T07:38:34.308Z,3.28
2022-09-15T07:41:05.942Z,3.13
2022-09-15T07:43:32.917Z,3.50
2022-09-15T07:46:00.767Z,3.45
2022-09-15T07:48:28.086Z,3.42
2022-09-15T07:50:54.748Z,3.10
2022-09-15T07:53:22.179Z,3.40
2022-09-15T07:55:53.505Z,3.70
2022-09-15T07:58:20.375Z,3.50
2022-09-15T08:00:47.665Z,3.55
2022-09-15T08:03:15.402Z,3.47
2022-09-15T08:05:45.605Z,3.53
2022-09-15T08:08:12.425Z,3.40
2022-09-15T08:10:42.858Z,3.40
2022-09-15T08:13:09.392Z,3.50
2022-09-15T08:15:38.908Z,3.20
2022-09-15T08:18:06.288Z,3.35
2022-09-15T08:20:33.245Z,3.38
2022-09-15T08:22:59.834Z,3.63
2022-09-15T08:25:26.656Z,3.55
2022-09-15T08:27:56.358Z,3.78
2022-09-15T08:30:23.909Z,3.15
2022-09-15T08:32:50.468Z,3.20
2022-09-15T08:35:17.638Z,3.20
2022-09-15T08:37:44.325Z,3.60
2022-09-15T08:40:23.829Z,3.42
2022-09-15T08:42:53.259Z,3.42
2022-09-15T08:45:36.587Z,3.25
2022-09-15T08:48:05.979Z,3.42
2022-09-15T08:50:38.974Z,3.30
2022-09-15T08:53:12.888Z,3.40
2022-09-15T08:55:54.666Z,2.95
2022-09-15T08:58:24.660Z,3.38
2022-09-15T09:01:04.461Z,3.03
2022-09-15T09:03:58.606Z,3.28
2022-09-15T09:06:53.313Z,3.00
2022-09-15T09:09:22.618Z,2.95
2022-09-15T09:11:59.029Z,3.17
2022-09-15T09:14:44.307Z,3.20
2022-09-15T09:17:22.204Z,3.45
2022-09-15T09:20:08.853Z,3.10
2022-09-15T09:22:40.568Z,3.20
2022-09-15T09:25:26.735Z,3.40
2022-09-15T09:27:54.270Z,2.90
2022-09-15T09:30:23.131Z,3.30
2022-09-15T09:32:55.798Z,3.28
2022-09-15T09:35:45.168Z,3.75
2022-09-15T09:38:17.431Z,3.20
2022-09-15T09:40:45.157Z,3.28
2022-09-15T09:43:11.693Z,3.17
2022-09-15T09:45:38.290Z,3.40
2022-09-15T09:48:20.074Z,3.20
2022-09-15T09:50:47.401Z,3.13
2022-09-15T09:53:36.758Z,3.08
2022-09-15T09:56:12.593Z,3.47
2022-09-15T09:58:39.099Z,3.45
2022-09-15T10:01:14.307Z,3.10
2022-09-15T10:03:44.293Z,3.05
2022-09-15T10:06:17.256Z,3.05
2022-09-15T10:08:58.865Z,2.80
2022-09-15T10:11:47.158Z,3.45
2022-09-15T10:14:21.656Z,3.53
2022-09-15T10:17:00.524Z,2.97
2022-09-15T10:19:33.062Z,3.10
2022-09-15T10:22:01.857Z,3.10
2022-09-15T10:24:35.190Z,3.38
2022-09-15T10:27:15.969Z,2.92
2022-09-15T10:29:42.489Z,3.08
2022-09-15T10:32:19.006Z,2.85
2022-09-15T10:34:51.275Z,3.17
2022-09-15T10:37:28.165Z,3.25
2022-09-15T10:39:57.385Z,3.10
2022-09-15T10:42:38.316Z,3.42
2022-09-15T10:45:11.499Z,3.30
2022-09-15T10:48:12.240Z,3.85
2022-09-15T10:50:57.279Z,3.72
2022-09-15T10:53:36.790Z,3.50
2022-09-15T10:56:27.329Z,3.53
2022-09-15T10:59:17.639Z,3.33
2022-09-15T11:01:52.988Z,3.47
2022-09-15T11:04:30.790Z,3.72
2022-09-15T11:07:13.451Z,3.20
2022-09-15T11:09:51.281Z,3.50
2022-09-15T11:12:30.639Z,3.80
2022-09-15T11:15:07.236Z,3.50
2022-09-15T11:18:01.913Z,3.20
2022-09-15T11:21:01.300Z,3.70
2022-09-15T11:23:40.133Z,3.03
2022-09-15T11:26:14.505Z,2.97
2022-09-15T11:28:56.342Z,3.30
2022-09-15T11:31:42.470Z,3.28
2022-09-15T11:34:26.964Z,3.60
2022-09-15T11:37:05.819Z,3.30
2022-09-15T11:40:00.359Z,3.00
2022-09-15T11:42:37.480Z,3.22
2022-09-15T11:45:06.774Z,3.38
2022-09-15T11:47:40.149Z,3.55
2022-09-15T11:50:18.911Z,3.58
2022-09-15T11:53:03.816Z,3.13
2022-09-15T11:55:33.259Z,3.17
2022-09-15T11:58:21.643Z,2.92
2022-09-15T12:01:16.433Z,2.92
2022-09-15T12:04:13.637Z,3.00
2022-09-15T12:06:46.091Z,3.00
2022-09-15T12:09:17.921Z,3.30
2022-09-15T12:11:47.753Z,3.22
2022-09-15T12:14:20.911Z,3.20
2022-09-15T12:16:47.860Z,3.28
2022-09-15T12:19:21.534Z,3.22
2022-09-15T12:21:56.838Z,3.15
2022-09-15T12:24:40.559Z,3.50
2022-09-15T12:27:15.898Z,3.13
2022-09-15T12:29:50.988Z,3.13
2022-09-15T12:32:24.132Z,3.75
2022-09-15T12:35:17.640Z,3.20
2022-09-15T12:37:59.006Z,3.55
2022-09-15T12:40:39.940Z,3.50
2022-09-15T12:43:12.870Z,3.42
2022-09-15T12:45:42.897Z,3.03
2022-09-15T12:48:18.955Z,3.47
2022-09-15T12:50:54.579Z,3.92
2022-09-15T12:53:26.151Z,4.00
2022-09-15T12:55:56.951Z,4.30
2022-09-15T12:58:39.197Z,4.28
2022-09-15T13:01:26.741Z,4.65
2022-09-15T13:03:57.817Z,3.90
2022-09-15T13:06:34.297Z,3.90
2022-09-15T13:09:05.407Z,4.15
2022-09-15T13:11:37.110Z,4.15
2022-09-15T13:14:04.045Z,3.92
2022-09-15T13:17:07.331Z,4.05
2022-09-15T13:19:36.611Z,3.78
2022-09-15T13:22:11.980Z,3.53
2022-09-15T13:24:44.528Z,3.83
2022-09-15T13:27:13.408Z,4.10
2022-09-15T13:29:50.953Z,4.20
2022-09-15T13:32:39.961Z,3.95
2022-09-15T13:35:17.101Z,3.72
2022-09-15T13:38:14.024Z,3.67
2022-09-15T13:41:15.293Z,3.90
2022-09-15T13:44:07.659Z,3.50
2022-09-15T13:46:41.773Z,3.95
2022-09-15T13:49:48.373Z,3.65
2022-09-15T13:52:47.811Z,3.63
2022-09-15T13:55:14.315Z,4.38
2022-09-15T14:00:42.638Z,3.80
2022-09-15T14:03:15.411Z,4.32
2022-09-15T14:05:42.576Z,4.00
2022-09-15T14:08:20.257Z,4.43
2022-09-15T14:11:08.351Z,3.85
2022-09-15T14:13:37.909Z,4.45
2022-09-15T14:16:25.607Z,4.25
2022-09-15T14:18:56.393Z,3.97
2022-09-15T14:21:28.919Z,3.97
2022-09-15T14:24:03.954Z,4.28
2022-09-15T14:26:35.410Z,4.35
2022-09-15T14:29:04.723Z,4.20
2022-09-15T14:31:40.329Z,4.00
2022-09-15T14:34:17.067Z,5.35
2022-09-15T14:36:43.646Z,3.67
2022-09-15T14:39:21.896Z,3.85
2022-09-15T14:41:50.158Z,4.03
2022-09-15T14:47:27.917Z,3.92
2022-09-15T14:50:08.093Z,4.10
2022-09-15T14:52:40.233Z,3.88
2022-09-15T14:55:14.073Z,3.80
2022-09-15T14:57:45.843Z,3.60
2022-09-15T15:00:23.364Z,3.95
2022-09-15T15:03:34.074Z,4.00
2022-09-15T15:06:28.419Z,3.80
2022-09-15T15:09:17.319Z,3.55
2022-09-15T15:11:44.476Z,3.72
2022-09-15T15:14:13.419Z,3.47
2022-09-15T15:16:56.776Z,3.30
2022-09-15T15:19:39.829Z,3.63
2022-09-15T15:22:20.625Z,3.50
2022-09-15T15:24:52.525Z,3.58
2022-09-15T15:27:25.888Z,3.60
2022-09-15T15:29:53.090Z,3.28
2022-09-15T15:32:25.122Z,3.40
2022-09-15T15:34:59.774Z,3.63
2022-09-15T15:37:29.636Z,3.03
2022-09-15T15:39:58.550Z,3.40
2022-09-15T15:42:28.782Z,3.30
2022-09-15T15:45:26.256Z,3.28
2022-09-15T15:47:53.307Z,3.30
2022-09-15T15:50:22.908Z,3.42
2022-09-15T15:52:49.997Z,3.30
2022-09-15T15:55:19.527Z,3.30
2022-09-15T15:57:55.896Z,3.35
2022-09-15T16:00:25.228Z,3.00
2022-09-15T16:02:52.497Z,3.60
2022-09-15T16:05:26.757Z,3.30
2022-09-15T16:07:56.136Z,3.47
2022-09-15T16:10:28.056Z,3.40
2022-09-15T16:12:54.514Z,2.95
2022-09-15T16:15:21.806Z,2.83
2022-09-15T16:17:49.616Z,3.45
2022-09-15T16:20:16.890Z,3.42
2022-09-15T16:22:43.725Z,3.33
2022-09-15T16:25:16.001Z,3.08
2022-09-15T16:27:44.182Z,3.35
2022-09-15T16:30:13.596Z,4.90
2022-09-15T16:32:40.736Z,2.90
2022-09-15T16:35:22.457Z,3.30
2022-09-15T16:37:49.030Z,3.20
2022-09-15T16:40:17.679Z,3.10
2022-09-15T16:42:44.415Z,3.60
2022-09-15T16:45:21.377Z,3.60
2022-09-15T16:47:47.902Z,3.30
2022-09-15T16:50:14.420Z,3.60
2022-09-15T16:52:40.924Z,3.60
2022-09-15T16:55:20.835Z,3.38
2022-09-15T16:57:47.733Z,3.38
2022-09-15T17:00:14.778Z,3.60
2022-09-15T17:02:41.379Z,3.00
2022-09-15T17:05:37.794Z,3.45
2022-09-15T17:08:05.432Z,3.45
2022-09-15T17:10:33.613Z,3.22
2022-09-15T17:13:00.724Z,3.63
2022-09-15T17:15:40.824Z,3.00
2022-09-15T17:18:09.978Z,3.35
2022-09-15T17:20:39.335Z,3.67
2022-09-15T17:23:31.165Z,3.50
2022-09-15T17:25:59.644Z,3.65
2022-09-15T17:28:29.004Z,3.80
2022-09-15T17:31:00.923Z,6.30
2022-09-15T17:33:28.861Z,4.72
2022-09-15T17:35:55.976Z,3.67
2022-09-15T17:38:22.943Z,3.75
2022-09-15T17:40:50.501Z,3.75
2022-09-15T17:43:20.215Z,3.42
2022-09-15T17:45:47.673Z,3.00
2022-09-15T17:48:14.324Z,3.58
2022-09-15T17:50:42.069Z,3.75
2022-09-15T17:53:22.609Z,3.60
2022-09-15T17:55:50.701Z,3.38
2022-09-15T17:58:17.873Z,3.53
2022-09-15T18:00:45.423Z,3.30
2022-09-15T18:03:17.865Z,3.60
2022-09-15T18:05:44.394Z,3.53
2022-09-15T18:08:11.007Z,3.20
2022-09-15T18:10:37.602Z,3.72
2022-09-15T18:13:05.754Z,3.28
2022-09-15T18:15:34.510Z,3.42
2022-09-15T18:18:04.097Z,3.35
2022-09-15T18:20:32.843Z,4.20
2022-09-15T18:23:00.268Z,4.47
2022-09-15T18:25:30.962Z,3.80
2022-09-15T18:27:58.920Z,4.40
2022-09-15T18:30:28.168Z,3.88
2022-09-15T18:32:55.014Z,3.42
2022-09-15T18:35:22.235Z,3.88
2022-09-15T18:37:53.916Z,3.50
2022-09-15T18:40:20.631Z,3.58
2022-09-15T18:42:47.338Z,3.50
2022-09-15T18:45:17.176Z,3.60
2022-09-15T18:47:47.021Z,3.92
2022-09-15T18:50:14.223Z,3.60
2022-09-15T18:52:41.720Z,3.97
2022-09-15T18:55:11.432Z,3.55
2022-09-15T18:57:40.211Z,3.80
2022-09-15T19:00:13.370Z,3.20
2022-09-15T19:02:40.244Z,3.53
2022-09-15T19:05:08.311Z,4.03
2022-09-15T19:07:34.825Z,4.22
2022-09-15T19:10:01.714Z,3.50
2022-09-15T19:12:28.310Z,3.13
2022-09-15T19:14:55.255Z,3.58
2022-09-15T19:17:22.319Z,3.92
2022-09-15T19:19:48.860Z,3.90
2022-09-15T19:22:15.615Z,3.60
2022-09-15T19:24:42.139Z,3.50
2022-09-15T19:27:09.210Z,3.83
2022-09-15T19:29:37.353Z,3.72
2022-09-15T19:32:06.251Z,3.60
2022-09-15T19:34:32.803Z,3.78
2022-09-15T19:36:59.464Z,3.50
2022-09-15T19:39:26.151Z,3.90
2022-09-15T19:41:52.875Z,3.90
2022-09-15T19:44:20.898Z,3.63
2022-09-15T19:46:47.379Z,3.78
2022-09-15T19:49:14.032Z,4.03
2022-09-15T19:51:40.853Z,3.53
2022-09-15T19:54:07.713Z,3.90
2022-09-15T19:56:35.545Z,3.85
2022-09-15T19:59:05.089Z,3.88
2022-09-15T20:01:33.063Z,3.80
2022-09-15T20:07:01.168Z,3.58
2022-09-15T20:09:27.715Z,3.80
2022-09-15T20:11:54.235Z,3.83
2022-09-15T20:14:20.787Z,4.50
2022-09-15T20:16:47.400Z,5.22
2022-09-15T20:19:14.015Z,5.75
2022-09-15T20:21:56.608Z,6.45
2022-09-15T20:24:24.238Z,6.40
2022-09-15T20:26:51.282Z,6.57
2022-09-15T20:29:21.478Z,6.40
2022-09-15T20:31:48.022Z,6.30
2022-09-15T20:34:14.713Z,5.75
2022-09-15T20:36:41.300Z,5.70
2022-09-15T20:39:13.305Z,4.90
2022-09-15T20:41:41.808Z,5.40
2022-09-15T20:44:12.413Z,4.55
2022-09-15T20:46:39.139Z,4.25
2022-09-15T20:49:05.930Z,4.25
2022-09-15T20:51:33.784Z,3.65
2022-09-15T20:54:06.806Z,3.80
2022-09-15T20:56:35.485Z,4.22
2022-09-15T20:59:04.286Z,3.90
2022-09-15T21:01:38.659Z,4.00
2022-09-15T21:04:06.662Z,4.03
2022-09-15T21:06:33.157Z,3.60
2022-09-15T21:09:00.396Z,3.47
2022-09-15T21:11:28.698Z,3.47
2022-09-15T21:13:55.868Z,3.90
2022-09-15T21:16:25.359Z,4.00
2022-09-15T21:18:52.096Z,4.13
2022-09-15T21:21:21.533Z,3.63
2022-09-15T21:23:54.218Z,3.80
2022-09-15T21:26:24.383Z,4.00
2022-09-15T21:28:51.489Z,3.90
2022-09-15T21:31:20.344Z,4.25
2022-09-15T21:33:48.471Z,4.60
2022-09-15T21:36:22.141Z,4.90
2022-09-15T21:38:50.946Z,4.93
2022-09-15T21:41:21.523Z,4.68
2022-09-15T21:43:49.462Z,5.53
2022-09-15T21:46:18.451Z,6.22
2022-09-15T21:48:47.536Z,5.80
2022-09-15T21:51:24.245Z,5.70
2022-09-15T21:53:53.090Z,4.75
2022-09-15T21:56:19.986Z,5.00
2022-09-15T21:58:46.647Z,4.88
2022-09-15T22:01:21.908Z,4.85
2022-09-15T22:04:01.896Z,3.65
2022-09-15T22:06:31.969Z,4.00
2022-09-15T22:09:00.640Z,4.45
2022-09-15T22:11:27.695Z,4.70
2022-09-15T22:13:54.260Z,4.50
2022-09-15T22:16:22.492Z,4.63
2022-09-15T22:18:49.594Z,5.13
2022-09-15T22:21:22.171Z,5.32
2022-09-15T22:23:50.230Z,5.72
2022-09-15T22:26:19.904Z,5.57
2022-09-15T22:28:46.881Z,5.28
2022-09-15T22:31:15.745Z,5.28
2022-09-15T22:33:42.697Z,4.90
2022-09-15T22:36:14.166Z,4.93
2022-09-15T22:38:41.081Z,4.30
2022-09-15T22:41:10.122Z,4.15
2022-09-15T22:43:36.964Z,4.50
2022-09-15T22:46:03.979Z,3.92
2022-09-15T22:48:30.543Z,3.83
2022-09-15T22:50:57.459Z,3.47
2022-09-15T22:53:24.255Z,3.70
2022-09-15T22:55:51.373Z,4.00
2022-09-15T22:58:18.025Z,3.70
2022-09-15T23:00:44.738Z,4.20
2022-09-15T23:03:11.959Z,4.00
2022-09-15T23:05:38.591Z,3.95
2022-09-15T23:08:05.340Z,3.42
2022-09-15T23:10:32.738Z,3.83
2022-09-15T23:12:59.834Z,3.15
2022-09-15T23:15:26.390Z,3.40
2022-09-15T23:17:52.848Z,3.00
2022-09-15T23:20:19.568Z,3.45
2022-09-15T23:22:46.030Z,2.90
2022-09-15T23:25:12.959Z,3.25
2022-09-15T23:27:39.621Z,3.58
2022-09-15T23:30:06.550Z,2.90
2022-09-15T23:32:33.079Z,3.25
2022-09-15T23:34:59.612Z,2.90
2022-09-15T23:37:26.251Z,2.80
2022-09-15T23:39:52.771Z,3.17
2022-09-15T23:42:19.298Z,3.33
2022-09-15T23:44:45.929Z,3.42
2022-09-15T23:47:12.475Z,3.60
2022-09-15T23:49:38.963Z,3.35
2022-09-15T23:52:05.468Z,3.58
2022-09-15T23:54:32.038Z,3.42
2022-09-15T23:56:58.513Z,3.45
2022-09-15T23:59:25.063Z,3.78
